Time;durP1;ratioP1;P1;durP2;ratioP2;P2;SDS_P1;SDS_P2;PMS_P1;PMS_P2;Temp;Humidity;BMP_temperature;BMP_pressure;BME280_temperature;BME280_humidity;BME280_pressure;Samples;Min_cycle;Max_cycle;Signal;HPM_P1;HPM_P2
2021/12/14 00:01:34;;;;;;;16.23;11.00;;;9.50;95.20;;;;;;5097701;28;20420;-45
2021/12/14 00:04:13;;;;;;;16.00;11.57;;;9.40;95.30;;;;;;5089335;28;20446;-45
2021/12/14 00:06:41;;;;;;;15.87;10.87;;;9.40;95.50;;;;;;5087898;28;20429;-45
2021/12/14 00:09:09;;;;;;;17.27;11.50;;;9.30;95.70;;;;;;5097304;28;20474;-44
2021/12/14 00:16:37;;;;;;;16.20;10.70;;;9.20;96.00;;;;;;5096836;28;20407;-45
2021/12/14 00:19:03;;;;;;;17.13;11.63;;;9.10;96.10;;;;;;5096781;28;20890;-45
2021/12/14 00:21:30;;;;;;;16.60;12.40;;;9.10;96.30;;;;;;5098133;28;20483;-45
2021/12/14 00:24:06;;;;;;;13.20;9.77;;;9.00;96.30;;;;;;5096443;28;20197;-45
2021/12/14 00:27:04;;;;;;;16.17;11.50;;;9.00;96.50;;;;;;5098336;28;20425;-45
2021/12/14 00:29:35;;;;;;;14.37;10.13;;;9.00;96.60;;;;;;5090233;28;20919;-45
2021/12/14 00:32:06;;;;;;;16.03;10.50;;;8.90;96.60;;;;;;5097833;28;20418;-45
2021/12/14 00:34:41;;;;;;;16.67;10.30;;;8.90;96.80;;;;;;5097805;28;20438;-45
2021/12/14 00:37:18;;;;;;;14.67;10.80;;;8.90;96.80;;;;;;5097819;28;20468;-45
2021/12/14 00:39:45;;;;;;;19.10;12.47;;;8.80;96.80;;;;;;5097931;28;20427;-45
2021/12/14 00:42:11;;;;;;;17.87;12.43;;;8.80;96.90;;;;;;5097750;28;20422;-45
2021/12/14 00:44:37;;;;;;;16.73;11.77;;;8.80;96.90;;;;;;5097430;28;20780;-45
2021/12/14 00:47:04;;;;;;;19.80;13.30;;;8.70;97.00;;;;;;5096663;28;20208;-45
2021/12/14 00:49:30;;;;;;;16.30;12.00;;;8.80;97.10;;;;;;5097939;28;20474;-45
2021/12/14 00:51:57;;;;;;;17.33;12.27;;;8.70;97.10;;;;;;5091249;28;20423;-45
2021/12/14 00:54:23;;;;;;;17.03;12.20;;;8.70;97.20;;;;;;5079746;28;20867;-45
2021/12/14 00:56:50;;;;;;;14.50;10.43;;;8.70;97.20;;;;;;5077598;28;20446;-45
2021/12/14 00:59:17;;;;;;;11.53;8.90;;;8.70;97.20;;;;;;5076804;28;20913;-45
2021/12/14 01:01:49;;;;;;;14.97;9.90;;;8.70;97.20;;;;;;5077530;28;20699;-45
2021/12/14 01:04:25;;;;;;;15.90;10.90;;;8.70;97.20;;;;;;5077363;28;20420;-45
2021/12/14 01:06:52;;;;;;;11.63;8.80;;;8.60;97.20;;;;;;5077355;28;20416;-45
2021/12/14 01:09:24;;;;;;;12.47;9.50;;;8.60;97.20;;;;;;5085607;28;20893;-45
2021/12/14 01:11:51;;;;;;;13.00;9.60;;;8.60;97.30;;;;;;5096752;28;20418;-45
2021/12/14 01:14:41;;;;;;;12.00;9.43;;;8.60;97.40;;;;;;5096957;28;20805;-45
2021/12/14 01:17:24;;;;;;;10.17;7.57;;;8.50;97.40;;;;;;5098020;28;20411;-45
2021/12/14 01:19:54;;;;;;;11.90;8.40;;;8.50;97.40;;;;;;5097147;28;20426;-45
2021/12/14 01:25:01;;;;;;;12.70;9.60;;;8.50;97.40;;;;;;5097682;28;20422;-45
2021/12/14 01:27:35;;;;;;;12.17;8.43;;;8.50;97.40;;;;;;5097525;28;20680;-45
2021/12/14 01:30:15;;;;;;;12.67;9.77;;;8.50;97.50;;;;;;5097412;28;20458;-45
2021/12/14 01:32:45;;;;;;;12.03;8.97;;;8.50;97.50;;;;;;5101643;28;20421;-45
2021/12/14 01:35:14;;;;;;;11.33;7.37;;;8.50;97.50;;;;;;5100558;28;21008;-45
2021/12/14 01:37:47;;;;;;;11.40;8.43;;;8.50;97.80;;;;;;5101101;28;20428;-45
2021/12/14 01:40:29;;;;;;;9.47;7.90;;;8.50;97.50;;;;;;5101137;28;20880;-45
2021/12/14 01:42:57;;;;;;;11.30;8.33;;;8.50;97.50;;;;;;5101262;28;20438;-45
2021/12/14 01:45:23;;;;;;;11.23;8.50;;;8.50;97.50;;;;;;5101349;28;20445;-45
2021/12/14 01:47:59;;;;;;;10.37;8.30;;;8.50;97.50;;;;;;5101056;28;20531;-45
2021/12/14 01:50:36;;;;;;;11.60;8.80;;;8.50;97.50;;;;;;5101179;28;20524;-45
2021/12/14 01:53:04;;;;;;;12.63;9.27;;;8.50;97.50;;;;;;5101373;28;20414;-45
2021/12/14 01:55:34;;;;;;;11.37;8.03;;;8.50;97.60;;;;;;5100830;28;20754;-45
2021/12/14 01:58:02;;;;;;;10.00;8.40;;;8.40;97.50;;;;;;5101151;28;20486;-45
2021/12/14 02:00:35;;;;;;;12.77;9.03;;;8.40;97.50;;;;;;5099862;28;20868;-45
2021/12/14 02:03:06;;;;;;;10.70;8.20;;;8.40;97.50;;;;;;5100601;28;20422;-45
2021/12/14 02:05:40;;;;;;;10.63;7.67;;;8.40;97.50;;;;;;5100883;28;20700;-45
2021/12/14 02:08:16;;;;;;;11.83;7.57;;;8.30;97.40;;;;;;5100163;28;20466;-45
2021/12/14 02:10:42;;;;;;;9.00;7.27;;;8.30;97.50;;;;;;5101062;28;20421;-45
2021/12/14 02:13:08;;;;;;;9.30;7.00;;;8.30;97.50;;;;;;5100036;28;20412;-45
2021/12/14 02:15:39;;;;;;;9.73;7.07;;;8.30;97.50;;;;;;5100170;28;20466;-45
2021/12/14 02:18:15;;;;;;;8.97;6.70;;;8.20;97.40;;;;;;5100453;28;20582;-45
2021/12/14 02:21:09;;;;;;;9.30;6.60;;;8.20;97.50;;;;;;5099891;28;20422;-45
2021/12/14 02:23:43;;;;;;;8.53;6.90;;;8.20;97.50;;;;;;5098306;28;20449;-45
2021/12/14 02:26:14;;;;;;;9.60;7.10;;;8.10;97.40;;;;;;5099986;28;20422;-45
2021/12/14 02:28:40;;;;;;;8.13;6.10;;;8.10;97.40;;;;;;5100345;28;20493;-46
2021/12/14 02:31:09;;;;;;;7.73;5.77;;;8.10;97.40;;;;;;5099345;28;20415;-46
2021/12/14 02:33:37;;;;;;;8.93;7.77;;;8.10;97.40;;;;;;5099863;28;20518;-46
2021/12/14 02:36:11;;;;;;;8.73;6.40;;;8.10;97.40;;;;;;5100378;28;20406;-46
2021/12/14 02:38:42;;;;;;;8.27;6.00;;;8.00;97.40;;;;;;5098601;28;20435;-46
2021/12/14 02:41:09;;;;;;;8.50;5.93;;;8.00;97.30;;;;;;5100094;28;20453;-46
2021/12/14 02:43:59;;;;;;;7.50;5.93;;;8.00;97.20;;;;;;5099170;28;20430;-46
2021/12/14 02:46:34;;;;;;;5.63;4.60;;;7.90;97.20;;;;;;5099570;28;20418;-46
2021/12/14 02:49:05;;;;;;;7.10;5.70;;;7.90;97.10;;;;;;5087366;28;20512;-46
2021/12/14 02:51:34;;;;;;;7.33;5.30;;;7.90;97.10;;;;;;5079968;28;20404;-44
2021/12/14 02:54:25;;;;;;;6.40;4.77;;;7.90;97.10;;;;;;5079506;28;20435;-44
2021/12/14 02:57:17;;;;;;;8.17;5.00;;;7.80;97.10;;;;;;5084238;28;20481;-45
2021/12/14 02:59:46;;;;;;;7.27;5.40;;;7.80;97.10;;;;;;5079848;28;20419;-44
2021/12/14 03:02:15;;;;;;;7.10;4.80;;;7.80;97.40;;;;;;5078923;28;20412;-44
2021/12/14 03:04:59;;;;;;;8.03;6.00;;;7.80;97.10;;;;;;5078911;28;20451;-44
2021/12/14 03:07:29;;;;;;;6.67;5.10;;;7.80;97.00;;;;;;5078888;28;20412;-46
2021/12/14 03:10:53;;;;;;;9.93;6.00;;;7.80;97.10;;;;;;5077935;28;20501;-44
2021/12/14 03:12:53;;;;;;;7.63;5.17;;;7.80;97.00;;;;;;5081190;28;20846;-45
2021/12/14 03:15:25;;;;;;;7.50;5.43;;;7.80;97.10;;;;;;5099184;28;20936;-44
2021/12/14 03:17:55;;;;;;;6.60;5.83;;;7.80;97.10;;;;;;5098982;28;20699;-45
2021/12/14 03:20:31;;;;;;;7.30;5.47;;;7.80;97.00;;;;;;5099290;28;20915;-45
2021/12/14 03:23:21;;;;;;;6.37;5.30;;;7.70;97.00;;;;;;5098945;28;20509;-44
2021/12/14 03:25:49;;;;;;;7.43;5.30;;;7.70;97.00;;;;;;5099496;28;20513;-44
2021/12/14 03:28:18;;;;;;;6.70;5.33;;;7.70;97.00;;;;;;5099090;28;20867;-44
2021/12/14 03:31:12;;;;;;;5.80;4.93;;;7.70;97.00;;;;;;5099236;28;20418;-44
2021/12/14 03:33:46;;;;;;;6.03;4.40;;;7.60;96.80;;;;;;5098984;28;20425;-44
2021/12/14 03:36:17;;;;;;;5.37;4.20;;;7.60;96.70;;;;;;5098425;28;20929;-44
2021/12/14 03:38:44;;;;;;;4.27;3.53;;;7.60;96.70;;;;;;5097736;28;20700;-45
2021/12/14 03:41:12;;;;;;;5.30;4.20;;;7.50;96.60;;;;;;5098852;28;20415;-46
2021/12/14 03:43:58;;;;;;;4.83;3.90;;;7.50;96.60;;;;;;5098934;28;20422;-45
2021/12/14 03:46:25;;;;;;;5.43;3.67;;;7.50;96.50;;;;;;5099131;28;20447;-45
2021/12/14 03:48:51;;;;;;;5.60;4.13;;;7.50;96.50;;;;;;5098582;28;20556;-45
2021/12/14 03:51:22;;;;;;;5.97;4.30;;;7.40;96.50;;;;;;5099144;28;20422;-45
2021/12/14 03:53:53;;;;;;;4.27;3.60;;;7.40;96.40;;;;;;5097525;28;20443;-45
2021/12/14 03:56:19;;;;;;;5.30;3.97;;;7.40;96.40;;;;;;5097663;28;20407;-45
2021/12/14 03:58:45;;;;;;;4.60;3.63;;;7.40;96.40;;;;;;5098760;28;20514;-45
2021/12/14 04:01:25;;;;;;;5.43;3.73;;;7.30;96.30;;;;;;5098580;28;20433;-45
2021/12/14 04:03:55;;;;;;;4.50;3.60;;;7.30;96.30;;;;;;5094548;28;20431;-45
2021/12/14 04:06:21;;;;;;;5.47;4.37;;;7.20;96.30;;;;;;5089876;28;20446;-45
2021/12/14 04:08:47;;;;;;;4.37;3.40;;;7.20;96.30;;;;;;5097347;28;20932;-45
2021/12/14 04:11:14;;;;;;;4.40;3.20;;;7.20;96.40;;;;;;5097754;28;20480;-45
2021/12/14 04:13:44;;;;;;;5.37;4.10;;;7.20;96.30;;;;;;5098079;28;20855;-45
2021/12/14 04:16:12;;;;;;;5.33;4.00;;;7.20;96.40;;;;;;5097875;28;20709;-45
2021/12/14 04:18:38;;;;;;;5.70;4.20;;;7.10;96.70;;;;;;5097756;28;20423;-44
2021/12/14 04:21:05;;;;;;;5.70;4.23;;;7.10;96.40;;;;;;5098245;28;20837;-45
2021/12/14 04:23:36;;;;;;;6.43;4.73;;;7.10;96.40;;;;;;5097956;28;20181;-45
2021/12/14 04:26:05;;;;;;;5.50;4.60;;;7.10;96.30;;;;;;5097984;28;20778;-45
2021/12/14 04:28:35;;;;;;;5.23;4.27;;;7.00;96.20;;;;;;5094765;28;20942;-45
2021/12/14 04:31:01;;;;;;;6.03;4.27;;;7.00;96.20;;;;;;5086428;28;20689;-45
2021/12/14 04:33:35;;;;;;;6.87;5.13;;;7.00;96.20;;;;;;5077851;28;20458;-48
2021/12/14 04:36:07;;;;;;;6.67;4.70;;;7.00;96.20;;;;;;5077870;28;20707;-45
2021/12/14 04:38:42;;;;;;;5.30;4.63;;;6.90;96.20;;;;;;5076426;28;20443;-45
2021/12/14 04:52:05;;;;;;;6.33;4.80;;;6.80;96.20;;;;;;5095039;28;20449;-45
2021/12/14 04:54:54;;;;;;;5.67;4.53;;;6.80;96.20;;;;;;5095274;28;20769;-45
2021/12/14 04:57:32;;;;;;;5.43;4.23;;;6.80;96.10;;;;;;5095351;28;20689;-45
2021/12/14 05:00:11;;;;;;;5.67;4.23;;;6.80;96.10;;;;;;5095462;28;20491;-45
2021/12/14 05:02:37;;;;;;;6.70;4.90;;;6.80;96.00;;;;;;5086307;28;20468;-45
2021/12/14 05:05:03;;;;;;;5.40;4.50;;;6.80;96.00;;;;;;5092533;28;20503;-48
2021/12/14 05:10:01;;;;;;;6.60;5.10;;;6.70;96.10;;;;;;5100281;28;20521;-48
2021/12/14 05:12:30;;;;;;;5.73;4.40;;;6.80;96.20;;;;;;5099014;28;20430;-48
2021/12/14 05:15:00;;;;;;;6.60;5.10;;;6.80;96.10;;;;;;5097534;28;20491;-48
2021/12/14 05:17:32;;;;;;;6.27;5.27;;;6.80;96.10;;;;;;5095332;28;20503;-48
2021/12/14 05:19:58;;;;;;;4.80;4.07;;;6.80;96.10;;;;;;5096326;28;20807;-48
2021/12/14 05:22:27;;;;;;;5.70;4.77;;;6.80;96.10;;;;;;5096389;28;20840;-48
2021/12/14 05:24:56;;;;;;;4.90;4.00;;;6.80;96.10;;;;;;5095917;28;20709;-48
2021/12/14 05:27:27;;;;;;;5.47;4.00;;;6.80;96.00;;;;;;5095095;28;20450;-48
2021/12/14 05:29:54;;;;;;;5.60;4.50;;;6.80;96.00;;;;;;5097796;28;20751;-48
2021/12/14 05:32:20;;;;;;;5.70;4.60;;;6.80;96.00;;;;;;5098434;28;20827;-48
2021/12/14 05:34:49;;;;;;;6.17;4.83;;;6.80;95.90;;;;;;5099329;28;20419;-48
2021/12/14 05:37:26;;;;;;;5.20;4.27;;;6.80;95.90;;;;;;5099052;28;20547;-48
2021/12/14 05:39:58;;;;;;;5.97;5.07;;;6.80;95.90;;;;;;5099930;28;20820;-48
2021/12/14 05:45:15;;;;;;;5.40;4.70;;;6.70;95.70;;;;;;5098624;28;20436;-48
2021/12/14 05:47:48;;;;;;;5.37;4.10;;;6.60;95.70;;;;;;5098953;28;20699;-48
2021/12/14 05:50:18;;;;;;;6.53;5.10;;;6.60;95.70;;;;;;5096720;28;20440;-48
2021/12/14 05:52:45;;;;;;;6.20;5.03;;;6.60;95.80;;;;;;5098847;28;20800;-48
2021/12/14 05:55:11;;;;;;;6.47;5.03;;;6.60;95.80;;;;;;5099024;28;20429;-48
2021/12/14 05:57:37;;;;;;;5.10;4.60;;;6.60;95.80;;;;;;5096744;28;20488;-48
2021/12/14 06:00:04;;;;;;;6.67;5.80;;;6.60;95.80;;;;;;5096626;28;20559;-48
2021/12/14 06:02:29;;;;;;;5.60;4.60;;;6.60;95.80;;;;;;5098556;28;20477;-48
2021/12/14 06:04:55;;;;;;;6.37;5.27;;;6.60;95.80;;;;;;5097668;28;20454;-48
2021/12/14 06:07:21;;;;;;;7.37;5.53;;;6.60;95.80;;;;;;5097094;28;20255;-48
2021/12/14 06:09:50;;;;;;;5.43;4.93;;;6.60;95.80;;;;;;5097742;28;20180;-48
2021/12/14 06:12:22;;;;;;;6.13;4.40;;;6.50;95.70;;;;;;5097308;28;20169;-48
2021/12/14 06:14:55;;;;;;;6.80;5.17;;;6.50;95.70;;;;;;5096242;28;20474;-48
2021/12/14 06:17:29;;;;;;;5.90;5.13;;;6.50;95.60;;;;;;5095653;28;20684;-48
2021/12/14 06:19:58;;;;;;;6.47;5.53;;;6.50;95.60;;;;;;5094947;28;20886;-48
2021/12/14 06:22:24;;;;;;;6.13;5.10;;;6.50;95.60;;;;;;5093983;28;20448;-48
2021/12/14 06:24:53;;;;;;;6.87;5.37;;;6.40;95.60;;;;;;5093228;28;20434;-48
2021/12/14 06:27:22;;;;;;;6.00;5.30;;;6.40;95.60;;;;;;5093716;28;20468;-48
2021/12/14 06:29:53;;;;;;;6.20;5.60;;;6.40;95.60;;;;;;5093709;28;20484;-48
2021/12/14 06:32:28;;;;;;;6.43;5.30;;;6.40;95.50;;;;;;5093370;28;20423;-48
2021/12/14 06:34:57;;;;;;;7.00;5.57;;;6.30;95.40;;;;;;5093283;28;20472;-48
2021/12/14 06:40:48;;;;;;;6.73;5.40;;;6.30;95.40;;;;;;5093390;28;20682;-48
2021/12/14 06:43:17;;;;;;;6.10;5.30;;;6.30;95.40;;;;;;5094983;28;20952;-48
2021/12/14 06:45:46;;;;;;;5.23;4.70;;;6.30;95.40;;;;;;5095842;28;20854;-48
2021/12/14 06:48:20;;;;;;;6.40;5.80;;;6.30;95.50;;;;;;5093634;28;20918;-48
2021/12/14 06:50:52;;;;;;;6.87;6.17;;;6.30;95.80;;;;;;5094203;28;20474;-48
2021/12/14 06:53:20;;;;;;;7.20;5.80;;;6.20;95.40;;;;;;5094150;28;20479;-48
2021/12/14 06:55:48;;;;;;;6.30;5.07;;;6.20;95.40;;;;;;5095531;28;20546;-48
2021/12/14 06:58:18;;;;;;;6.23;5.60;;;6.20;95.30;;;;;;5093306;28;20414;-48
2021/12/14 07:00:52;;;;;;;5.77;5.17;;;6.20;95.40;;;;;;5094549;28;20867;-48
2021/12/14 07:03:18;;;;;;;6.87;5.80;;;6.20;95.30;;;;;;5092765;28;20427;-48
2021/12/14 07:05:48;;;;;;;7.73;5.40;;;6.20;95.40;;;;;;5074235;28;20419;-48
2021/12/14 07:08:26;;;;;;;6.83;6.03;;;6.20;95.30;;;;;;5094459;28;20657;-48
2021/12/14 07:10:53;;;;;;;8.00;6.40;;;6.20;95.30;;;;;;5093898;28;21052;-48
2021/12/14 07:13:24;;;;;;;7.10;6.40;;;6.30;95.40;;;;;;5095606;28;20442;-48
2021/12/14 07:15:51;;;;;;;5.73;5.13;;;6.20;95.20;;;;;;5096232;28;21036;-48
2021/12/14 07:18:17;;;;;;;6.27;5.67;;;6.20;95.20;;;;;;5095240;28;20398;-48
2021/12/14 07:20:46;;;;;;;7.30;5.07;;;6.20;95.20;;;;;;5096912;28;20419;-48
2021/12/14 07:23:19;;;;;;;5.00;4.50;;;6.20;95.30;;;;;;5096821;28;20756;-48
2021/12/14 07:25:54;;;;;;;5.00;4.50;;;6.20;95.40;;;;;;5097451;28;20414;-48
2021/12/14 07:28:20;;;;;;;4.53;4.13;;;6.20;95.50;;;;;;5075528;28;20462;-48
2021/12/14 07:30:45;;;;;;;5.23;4.50;;;6.20;95.60;;;;;;5095196;28;20411;-48
2021/12/14 07:33:16;;;;;;;5.93;4.40;;;6.20;95.50;;;;;;5095759;28;20176;-48
2021/12/14 07:36:02;;;;;;;5.00;4.50;;;6.20;95.40;;;;;;5096577;28;20184;-48
2021/12/14 07:38:35;;;;;;;5.63;5.10;;;6.20;95.40;;;;;;5096406;28;20442;-48
2021/12/14 07:41:03;;;;;;;6.03;4.80;;;6.20;95.50;;;;;;5094561;28;20429;-48
2021/12/14 07:44:11;;;;;;;4.77;4.30;;;6.20;95.70;;;;;;5096233;28;20410;-48
2021/12/14 07:46:43;;;;;;;4.30;3.90;;;6.30;95.80;;;;;;5095020;28;20426;-48
2021/12/14 07:49:22;;;;;;;4.93;4.53;;;6.30;95.80;;;;;;5095886;28;20478;-48
2021/12/14 07:51:52;;;;;;;5.00;4.30;;;6.30;95.80;;;;;;5096590;28;20421;-48
2021/12/14 07:54:25;;;;;;;5.13;4.63;;;6.40;95.80;;;;;;5096245;28;20419;-48
2021/12/14 07:56:57;;;;;;;5.10;4.60;;;6.50;95.80;;;;;;5097463;28;20407;-48
2021/12/14 07:59:28;;;;;;;5.50;5.00;;;6.60;95.90;;;;;;5095419;28;20419;-48
2021/12/14 08:02:15;;;;;;;4.10;3.70;;;6.60;95.80;;;;;;5095711;28;20420;-48
2021/12/14 08:04:47;;;;;;;5.27;4.77;;;6.70;95.80;;;;;;5096640;28;20414;-48
2021/12/14 08:07:25;;;;;;;4.43;4.03;;;6.80;95.80;;;;;;5095156;28;20730;-48
2021/12/14 08:09:53;;;;;;;4.70;4.07;;;6.80;95.70;;;;;;5095668;28;20595;-48
2021/12/14 08:12:32;;;;;;;4.97;4.47;;;6.80;95.70;;;;;;5095970;28;20504;-48
2021/12/14 08:15:02;;;;;;;4.97;4.47;;;6.90;95.70;;;;;;5094348;28;20485;-48
2021/12/14 08:17:28;;;;;;;4.50;4.10;;;6.90;95.60;;;;;;5095742;28;20410;-48
2021/12/14 08:19:54;;;;;;;4.90;4.40;;;7.00;95.60;;;;;;5095347;28;20428;-49
2021/12/14 08:22:32;;;;;;;5.20;4.70;;;7.00;95.60;;;;;;5095207;28;20180;-48
2021/12/14 08:24:58;;;;;;;4.23;3.80;;;7.10;95.60;;;;;;5092415;28;20458;-48
2021/12/14 08:27:27;;;;;;;4.43;4.03;;;7.10;95.50;;;;;;5084920;28;20454;-49
2021/12/14 08:29:57;;;;;;;5.63;4.70;;;7.10;95.50;;;;;;5075209;28;20479;-49
2021/12/14 08:32:31;;;;;;;4.97;4.53;;;7.20;95.80;;;;;;5073739;28;20980;-48
2021/12/14 08:34:58;;;;;;;4.73;4.23;;;7.20;95.50;;;;;;5073434;28;20432;-48
2021/12/14 08:37:35;;;;;;;6.80;5.70;;;7.30;95.50;;;;;;5074278;28;20828;-49
2021/12/14 08:40:05;;;;;;;7.17;6.47;;;7.30;95.50;;;;;;5071684;28;20496;-49
2021/12/14 08:43:22;;;;;;;8.80;8.03;;;7.40;95.40;;;;;;5072432;28;20411;-48
2021/12/14 08:45:29;;;;;;;10.20;9.17;;;7.50;95.40;;;;;;5065378;28;20440;-48
2021/12/14 08:48:11;;;;;;;8.57;7.77;;;7.70;95.40;;;;;;5075706;28;20492;-48
2021/12/14 08:50:59;;;;;;;8.10;7.30;;;7.90;95.30;;;;;;5075505;28;20427;-49
2021/12/14 08:53:28;;;;;;;7.67;6.93;;;8.20;95.10;;;;;;5074571;28;20406;-49
2021/12/14 08:55:56;;;;;;;7.50;6.70;;;8.60;95.00;;;;;;5075225;28;20473;-48
2021/12/14 08:58:23;;;;;;;7.10;6.40;;;9.20;94.70;;;;;;5073503;28;20427;-48
2021/12/14 09:00:53;;;;;;;7.37;6.77;;;9.70;94.10;;;;;;5074977;28;20530;-49
2021/12/14 09:03:44;;;;;;;6.80;6.20;;;10.20;92.80;;;;;;5074176;28;20680;-49
2021/12/14 09:06:13;;;;;;;6.97;6.00;;;10.60;92.00;;;;;;5072593;28;20415;-43
2021/12/14 09:08:40;;;;;;;6.57;5.97;;;10.80;91.50;;;;;;5071477;28;20569;-42
2021/12/14 09:11:08;;;;;;;4.67;4.27;;;11.00;91.00;;;;;;5072863;28;20439;-42
2021/12/14 09:13:34;;;;;;;6.00;5.50;;;11.10;90.60;;;;;;5073835;28;20439;-42
2021/12/14 09:16:04;;;;;;;6.23;5.37;;;11.20;90.30;;;;;;5072728;28;20416;-44
2021/12/14 09:18:35;;;;;;;4.37;3.97;;;11.30;90.10;;;;;;5073665;28;20542;-43
2021/12/14 09:21:08;;;;;;;4.90;3.97;;;11.60;90.10;;;;;;5075352;28;20415;-43
2021/12/14 09:23:45;;;;;;;4.77;4.27;;;12.10;89.90;;;;;;5075341;28;20474;-43
2021/12/14 09:26:15;;;;;;;3.97;3.63;;;12.50;89.00;;;;;;5074463;28;20517;-43
2021/12/14 09:28:41;;;;;;;4.03;3.37;;;12.80;88.00;;;;;;5076005;28;20815;-44
2021/12/14 09:31:13;;;;;;;3.87;3.57;;;13.30;87.00;;;;;;5075883;28;20476;-43
2021/12/14 09:33:40;;;;;;;3.60;3.10;;;13.70;85.30;;;;;;5076031;28;20510;-43
2021/12/14 09:36:12;;;;;;;4.10;3.63;;;13.90;84.20;;;;;;5075822;28;20673;-45
2021/12/14 09:38:50;;;;;;;4.47;3.53;;;13.90;82.90;;;;;;5074220;28;20495;-44
2021/12/14 09:41:18;;;;;;;5.20;3.50;;;14.00;82.00;;;;;;5074167;28;20438;-44
2021/12/14 09:43:47;;;;;;;3.80;3.50;;;14.20;81.60;;;;;;5074214;28;20539;-43
2021/12/14 09:46:14;;;;;;;3.50;3.20;;;14.60;80.90;;;;;;5073786;28;20407;-44
2021/12/14 09:48:44;;;;;;;3.57;3.27;;;14.80;79.70;;;;;;5074075;28;20911;-43
2021/12/14 09:51:23;;;;;;;3.13;2.83;;;15.00;79.20;;;;;;5075226;28;20818;-44
2021/12/14 09:53:53;;;;;;;4.00;3.60;;;15.30;78.40;;;;;;5077885;28;20441;-42
2021/12/14 09:56:20;;;;;;;3.80;3.43;;;15.40;76.80;;;;;;5078896;28;20412;-44
2021/12/14 09:58:51;;;;;;;3.67;3.07;;;15.50;76.30;;;;;;5079305;28;20557;-46
2021/12/14 10:01:22;;;;;;;3.20;2.90;;;15.70;75.90;;;;;;5078941;28;20430;-46
2021/12/14 10:03:52;;;;;;;2.93;2.70;;;16.00;74.60;;;;;;5078765;28;20849;-43
2021/12/14 10:06:21;;;;;;;3.13;2.83;;;16.20;73.80;;;;;;5077350;28;20493;-44
2021/12/14 10:08:53;;;;;;;3.30;3.00;;;16.40;72.30;;;;;;5076946;28;20589;-44
2021/12/14 10:11:27;;;;;;;3.90;3.23;;;16.60;71.40;;;;;;5076236;28;20429;-45
2021/12/14 10:13:56;;;;;;;3.43;3.13;;;16.80;70.70;;;;;;5075495;28;20499;-48
2021/12/14 10:16:22;;;;;;;3.20;2.90;;;17.00;70.00;;;;;;5075973;28;20814;-44
2021/12/14 10:18:58;;;;;;;3.43;3.13;;;17.00;69.50;;;;;;5074581;28;20463;-42
2021/12/14 10:21:34;;;;;;;3.50;2.97;;;17.00;68.90;;;;;;5074258;28;20686;-44
2021/12/14 10:24:01;;;;;;;3.90;3.50;;;16.80;68.00;;;;;;5075615;28;20820;-46
2021/12/14 10:26:29;;;;;;;4.50;3.40;;;16.80;67.70;;;;;;5075607;28;20417;-45
2021/12/14 10:28:56;;;;;;;3.97;3.50;;;16.80;67.70;;;;;;5074995;28;20860;-45
2021/12/14 10:31:27;;;;;;;3.97;3.57;;;16.60;67.30;;;;;;5077133;28;20411;-43
2021/12/14 10:33:53;;;;;;;4.00;3.60;;;16.40;67.30;;;;;;5076955;28;20430;-44
2021/12/14 10:36:31;;;;;;;4.07;3.13;;;16.30;67.50;;;;;;5076568;28;20480;-46
2021/12/14 10:39:18;;;;;;;4.03;3.57;;;16.10;67.80;;;;;;5076424;28;20532;-43
2021/12/14 10:44:37;;;;;;;4.53;3.33;;;16.00;68.40;;;;;;5077132;28;20432;-43
2021/12/14 10:47:04;;;;;;;4.00;3.60;;;16.00;68.60;;;;;;5077630;28;20429;-42
2021/12/14 10:49:31;;;;;;;4.87;3.57;;;16.10;68.70;;;;;;5076643;28;20506;-43
2021/12/14 10:52:01;;;;;;;3.37;3.07;;;16.30;69.00;;;;;;5076972;28;20660;-43
2021/12/14 10:54:28;;;;;;;4.20;3.13;;;16.50;67.80;;;;;;5075200;28;20415;-46
2021/12/14 10:57:02;;;;;;;3.73;3.33;;;16.60;67.30;;;;;;5075393;28;20473;-43
2021/12/14 10:59:31;;;;;;;3.77;3.37;;;16.70;66.90;;;;;;5073880;28;20866;-43
2021/12/14 11:01:57;;;;;;;4.10;3.20;;;16.70;66.50;;;;;;5075913;28;20406;-45
2021/12/14 11:04:25;;;;;;;4.93;3.20;;;16.70;66.40;;;;;;5075759;28;20775;-42
2021/12/14 11:06:52;;;;;;;3.80;3.33;;;16.70;66.20;;;;;;5075948;28;20487;-43
2021/12/14 11:09:43;;;;;;;5.50;3.43;;;16.80;66.20;;;;;;5075930;28;20485;-43
2021/12/14 11:12:34;;;;;;;3.63;3.27;;;16.90;66.10;;;;;;5076458;28;20406;-43
2021/12/14 11:15:11;;;;;;;3.93;3.20;;;17.10;65.80;;;;;;5074701;28;20443;-43
2021/12/14 11:20:34;;;;;;;3.80;3.10;;;17.70;65.00;;;;;;5072903;28;20426;-44
2021/12/14 11:23:15;;;;;;;3.00;2.70;;;18.50;64.20;;;;;;5074383;28;20406;-43
2021/12/14 11:25:50;;;;;;;3.50;3.20;;;19.20;62.80;;;;;;5075096;28;20430;-44
2021/12/14 11:28:39;;;;;;;4.17;3.20;;;19.80;60.60;;;;;;5075079;28;20470;-44
2021/12/14 11:31:34;;;;;;;5.33;3.70;;;20.50;59.20;;;;;;5074647;28;20426;-44
2021/12/14 11:34:14;;;;;;;4.10;3.13;;;21.40;57.90;;;;;;5073314;28;20485;-43
2021/12/14 11:36:56;;;;;;;4.10;3.23;;;22.10;56.40;;;;;;5074085;28;20755;-43
2021/12/14 11:39:28;;;;;;;4.33;3.57;;;22.50;54.90;;;;;;5075799;28;20919;-44
2021/12/14 11:41:58;;;;;;;4.37;3.97;;;23.00;53.90;;;;;;5075667;28;20685;-45
2021/12/14 11:44:31;;;;;;;4.00;3.60;;;23.40;52.70;;;;;;5075245;28;20502;-44
2021/12/14 11:47:03;;;;;;;3.93;3.47;;;23.90;51.50;;;;;;5076179;28;20925;-45
2021/12/14 11:49:58;;;;;;;4.93;4.10;;;24.50;50.30;;;;;;5076499;28;20885;-45
2021/12/14 11:52:49;;;;;;;8.60;3.60;;;25.00;49.00;;;;;;5062222;28;20475;-44
2021/12/14 11:55:21;;;;;;;5.93;3.17;;;25.70;48.00;;;;;;5094184;28;20426;-42
2021/12/14 11:57:48;;;;;;;3.97;2.90;;;26.40;47.60;;;;;;5095351;28;20412;-43
2021/12/14 12:00:19;;;;;;;3.60;2.37;;;26.90;47.50;;;;;;5095194;28;20697;-43
2021/12/14 12:02:45;;;;;;;9.70;2.37;;;27.30;47.30;;;;;;5094216;28;20443;-43
2021/12/14 12:05:26;;;;;;;5.50;3.10;;;27.50;47.00;;;;;;5091198;28;20457;-43
2021/12/14 12:10:43;;;;;;;3.10;2.57;;;27.90;45.40;;;;;;5093298;28;20430;-42
2021/12/14 12:13:09;;;;;;;4.73;3.00;;;27.70;46.20;;;;;;5085282;28;20737;-43
2021/12/14 12:15:47;;;;;;;2.97;2.60;;;27.20;46.70;;;;;;5082771;28;20444;-43
2021/12/14 12:18:14;;;;;;;5.17;3.37;;;26.80;46.80;;;;;;5081794;28;20464;-44
2021/12/14 12:20:47;;;;;;;3.73;3.43;;;26.40;46.40;;;;;;5093761;28;20500;-42
2021/12/14 12:23:18;;;;;;;3.70;3.30;;;26.10;46.90;;;;;;5092380;28;20483;-44
2021/12/14 12:25:59;;;;;;;3.80;3.40;;;25.70;47.80;;;;;;5091066;28;20733;-43
2021/12/14 12:28:43;;;;;;;6.10;3.83;;;25.40;48.10;;;;;;5089823;28;20478;-43
2021/12/14 12:31:14;;;;;;;4.00;3.13;;;25.20;47.70;;;;;;5088276;28;20419;-43
2021/12/14 12:33:42;;;;;;;3.10;2.80;;;24.90;48.10;;;;;;5091451;28;20411;-43
2021/12/14 12:36:16;;;;;;;3.83;3.43;;;24.90;48.10;;;;;;5091387;28;20425;-45
2021/12/14 12:38:59;;;;;;;4.00;3.30;;;24.80;47.50;;;;;;5092558;28;20417;-45
2021/12/14 12:41:50;;;;;;;3.83;2.97;;;24.70;47.40;;;;;;5088053;28;20467;-45
2021/12/14 12:44:22;;;;;;;4.17;3.13;;;24.50;47.40;;;;;;5074642;28;20419;-44
2021/12/14 12:47:18;;;;;;;3.53;3.10;;;24.20;47.60;;;;;;5072409;28;20844;-45
2021/12/14 12:49:46;;;;;;;3.23;2.83;;;23.90;48.20;;;;;;5073832;28;20476;-43
2021/12/14 12:52:30;;;;;;;3.20;2.40;;;23.80;48.70;;;;;;5071294;28;20413;-44
2021/12/14 12:55:06;;;;;;;3.70;2.67;;;23.60;49.00;;;;;;5070924;28;20421;-43
2021/12/14 12:57:40;;;;;;;3.70;2.80;;;23.50;49.30;;;;;;5070769;28;20421;-43
2021/12/14 13:00:44;;;;;;;2.50;2.30;;;23.40;49.50;;;;;;5077589;28;20435;-43
2021/12/14 13:03:18;;;;;;;3.20;2.60;;;23.30;49.90;;;;;;5069859;28;20503;-47
2021/12/14 13:05:46;;;;;;;3.23;2.73;;;23.20;50.10;;;;;;5070120;28;20851;-46
2021/12/14 13:08:41;;;;;;;2.60;2.40;;;23.20;50.00;;;;;;5072916;28;20463;-44
2021/12/14 13:11:32;;;;;;;4.23;3.03;;;23.30;49.90;;;;;;5073132;28;20538;-45
2021/12/14 13:14:01;;;;;;;4.17;3.60;;;23.30;49.80;;;;;;5073283;28;20427;-44
2021/12/14 13:16:33;;;;;;;4.67;3.90;;;23.30;49.60;;;;;;5073152;28;20741;-44
2021/12/14 13:19:30;;;;;;;5.30;4.43;;;23.30;49.50;;;;;;5071759;28;20686;-43
2021/12/14 13:21:57;;;;;;;6.80;5.40;;;23.20;49.50;;;;;;5073221;28;20415;-45
2021/12/14 13:24:33;;;;;;;5.20;3.93;;;23.20;49.60;;;;;;5072592;28;20411;-43
2021/12/14 13:27:17;;;;;;;4.90;4.10;;;23.30;49.60;;;;;;5091859;28;20507;-43
2021/12/14 13:29:45;;;;;;;5.33;4.33;;;23.20;49.30;;;;;;5097184;28;20792;-44
2021/12/14 13:32:11;;;;;;;5.50;4.50;;;23.10;49.50;;;;;;5098106;28;20410;-44
2021/12/14 13:34:58;;;;;;;5.70;4.23;;;22.90;49.60;;;;;;5096199;28;20706;-44
2021/12/14 13:37:37;;;;;;;4.90;3.90;;;22.80;49.90;;;;;;5095818;28;20174;-46
2021/12/14 13:40:20;;;;;;;14.03;5.00;;;22.70;50.20;;;;;;5095079;28;20843;-44
2021/12/14 13:42:57;;;;;;;6.20;4.70;;;22.60;50.80;;;;;;5094193;28;20686;-43
2021/12/14 13:45:26;;;;;;;6.70;4.80;;;22.50;51.00;;;;;;5095672;28;20483;-44
2021/12/14 13:47:53;;;;;;;4.83;4.20;;;22.40;51.20;;;;;;5095140;28;20418;-42
2021/12/14 13:50:26;;;;;;;5.40;4.70;;;22.30;51.30;;;;;;5094642;28;20437;-43
2021/12/14 13:52:52;;;;;;;4.50;3.83;;;22.20;51.60;;;;;;5096522;28;20410;-42
2021/12/14 13:55:22;;;;;;;5.30;4.80;;;22.10;52.10;;;;;;5097449;28;20517;-43